createdAt,value
2022-09-24T00:01:39.886Z,13.90
2022-09-24T00:04:12.080Z,13.88
2022-09-24T00:06:46.471Z,13.90
2022-09-24T00:09:16.295Z,13.94
2022-09-24T00:11:45.534Z,13.94
2022-09-24T00:14:15.782Z,13.96
2022-09-24T00:16:45.261Z,13.96
2022-09-24T00:19:14.075Z,13.92
2022-09-24T00:21:41.869Z,13.87
2022-09-24T00:24:33.778Z,13.86
2022-09-24T00:27:02.766Z,13.85
2022-09-24T00:29:33.940Z,13.83
2022-09-24T00:32:01.718Z,13.76
2022-09-24T00:34:29.426Z,13.70
2022-09-24T00:36:56.353Z,13.72
2022-09-24T00:39:23.241Z,13.69
2022-09-24T00:41:50.172Z,13.67
2022-09-24T00:44:41.668Z,13.65
2022-09-24T00:47:11.726Z,13.65
2022-09-24T00:49:39.369Z,13.63
2022-09-24T00:52:06.804Z,13.64
2022-09-24T00:54:33.803Z,13.64
2022-09-24T00:57:01.762Z,13.63
2022-09-24T00:59:30.298Z,13.59
2022-09-24T01:01:59.068Z,13.52
2022-09-24T01:04:28.456Z,13.47
2022-09-24T01:06:56.484Z,13.42
2022-09-24T01:09:26.451Z,13.36
2022-09-24T01:12:29.543Z,13.36
2022-09-24T01:15:22.840Z,13.36
2022-09-24T01:18:04.073Z,13.35
2022-09-24T01:21:03.430Z,13.33
2022-09-24T01:24:17.822Z,13.32
2022-09-24T01:27:08.379Z,13.32
2022-09-24T01:29:57.260Z,13.35
2022-09-24T01:32:43.691Z,13.34
2022-09-24T01:35:39.922Z,13.38
2022-09-24T01:38:34.784Z,13.36
2022-09-24T01:41:04.129Z,13.34
2022-09-24T01:43:32.977Z,13.33
2022-09-24T01:46:06.960Z,13.29
2022-09-24T01:48:37.249Z,13.26
2022-09-24T01:51:19.121Z,13.23
2022-09-24T01:53:55.446Z,13.19
2022-09-24T01:56:58.428Z,13.19
2022-09-24T01:59:55.835Z,13.22
2022-09-24T02:02:35.546Z,13.26
2022-09-24T02:05:12.794Z,13.26
2022-09-24T02:07:55.270Z,13.28
2022-09-24T02:10:22.191Z,13.29
2022-09-24T02:13:04.055Z,13.29
2022-09-24T02:15:37.514Z,13.27
2022-09-24T02:18:09.768Z,13.26
2022-09-24T02:20:41.825Z,13.26
2022-09-24T02:23:11.807Z,13.27
2022-09-24T02:25:55.037Z,13.23
2022-09-24T02:28:22.782Z,13.23
2022-09-24T02:31:00.927Z,13.24
2022-09-24T02:33:48.689Z,13.21
2022-09-24T02:36:16.077Z,13.16
2022-09-24T02:38:43.008Z,13.16
2022-09-24T02:41:10.975Z,13.12
2022-09-24T02:43:37.884Z,13.11
2022-09-24T02:46:04.922Z,13.12
2022-09-24T02:48:31.894Z,13.09
2022-09-24T02:50:58.809Z,13.08
2022-09-24T02:53:26.410Z,13.07
2022-09-24T02:55:53.312Z,13.06
2022-09-24T02:58:20.978Z,13.08
2022-09-24T03:00:47.961Z,13.06
2022-09-24T03:03:15.379Z,13.10
2022-09-24T03:05:42.467Z,13.10
2022-09-24T03:08:09.374Z,13.04
2022-09-24T03:10:36.389Z,13.02
2022-09-24T03:13:03.346Z,12.99
2022-09-24T03:15:30.244Z,12.94
2022-09-24T03:17:57.371Z,12.89
2022-09-24T03:20:24.437Z,12.88
2022-09-24T03:22:52.013Z,12.87
2022-09-24T03:25:20.100Z,12.91
2022-09-24T03:27:47.185Z,12.87
2022-09-24T03:30:33.489Z,12.81
2022-09-24T03:33:00.420Z,12.85
2022-09-24T03:35:27.411Z,12.84
2022-09-24T03:37:54.370Z,12.82
2022-09-24T03:40:21.586Z,12.82
2022-09-24T03:42:48.552Z,12.78
2022-09-24T03:45:15.511Z,12.77
2022-09-24T03:47:42.681Z,12.76
2022-09-24T03:50:12.630Z,12.76
2022-09-24T03:52:39.942Z,12.75
2022-09-24T03:55:08.082Z,12.75
2022-09-24T03:57:35.127Z,12.73
2022-09-24T04:00:02.222Z,12.73
2022-09-24T04:02:33.338Z,12.74
2022-09-24T04:05:00.303Z,12.74
2022-09-24T04:07:27.349Z,12.75
2022-09-24T04:09:54.260Z,12.75
2022-09-24T04:12:21.238Z,12.77
2022-09-24T04:14:48.189Z,12.78
2022-09-24T04:17:16.727Z,12.77
2022-09-24T04:19:44.005Z,12.76
2022-09-24T04:22:10.960Z,12.76
2022-09-24T04:24:38.045Z,12.72
2022-09-24T04:27:05.042Z,12.69
2022-09-24T04:29:31.973Z,12.70
2022-09-24T04:31:58.835Z,12.71
2022-09-24T04:34:25.747Z,12.68
2022-09-24T04:36:52.694Z,12.74
2022-09-24T04:39:22.361Z,12.74
2022-09-24T04:41:49.270Z,12.77
2022-09-24T04:44:16.198Z,12.81
2022-09-24T04:46:43.143Z,12.85
2022-09-24T04:49:11.377Z,12.85
2022-09-24T04:51:38.391Z,12.85
2022-09-24T04:54:05.356Z,12.80
2022-09-24T04:56:32.430Z,12.82
2022-09-24T04:58:59.352Z,12.79
2022-09-24T05:01:26.678Z,12.79
2022-09-24T05:03:53.904Z,12.77
2022-09-24T05:06:21.104Z,12.74
2022-09-24T05:08:47.983Z,12.76
2022-09-24T05:11:14.853Z,12.75
2022-09-24T05:13:41.805Z,12.72
2022-09-24T05:16:09.330Z,12.75
2022-09-24T05:18:37.049Z,12.74
2022-09-24T05:21:04.254Z,12.79
2022-09-24T05:23:31.120Z,12.82
2022-09-24T05:26:16.694Z,12.85
2022-09-24T05:28:43.604Z,12.87
2022-09-24T05:31:10.830Z,12.89
2022-09-24T05:33:38.486Z,12.90
2022-09-24T05:36:05.652Z,12.92
2022-09-24T05:38:32.959Z,12.92
2022-09-24T05:41:00.070Z,12.93
2022-09-24T05:43:31.704Z,12.94
2022-09-24T05:45:58.790Z,12.92
2022-09-24T05:48:26.114Z,12.88
2022-09-24T05:50:55.364Z,12.86
2022-09-24T05:53:25.386Z,12.86
2022-09-24T05:55:52.341Z,12.89
2022-09-24T05:58:19.265Z,12.93
2022-09-24T06:00:46.732Z,12.94
2022-09-24T06:03:16.537Z,12.96
2022-09-24T06:05:46.810Z,12.92
2022-09-24T06:08:15.408Z,12.93
2022-09-24T06:10:45.274Z,12.96
2022-09-24T06:13:14.139Z,12.95
2022-09-24T06:15:42.201Z,12.96
2022-09-24T06:18:10.929Z,12.98
2022-09-24T06:20:38.329Z,12.99
2022-09-24T06:23:06.467Z,12.98
2022-09-24T06:25:33.583Z,12.94
2022-09-24T06:28:03.953Z,12.89
2022-09-24T06:30:34.781Z,12.84
2022-09-24T06:33:08.524Z,12.87
2022-09-24T06:35:37.106Z,12.83
2022-09-24T06:38:05.171Z,12.85
2022-09-24T06:40:37.141Z,12.86
2022-09-24T06:43:08.346Z,12.86
2022-09-24T06:45:35.297Z,12.85
2022-09-24T06:48:04.875Z,12.88
2022-09-24T06:50:34.532Z,12.92
2022-09-24T06:53:05.304Z,12.95
2022-09-24T06:55:32.546Z,12.93
2022-09-24T06:58:13.928Z,12.98
2022-09-24T07:00:41.737Z,13.01
2022-09-24T07:03:15.649Z,13.03
2022-09-24T07:05:43.971Z,13.07
2022-09-24T07:08:11.046Z,13.13
2022-09-24T07:10:42.163Z,13.19
2022-09-24T07:13:09.040Z,13.22
2022-09-24T07:15:36.003Z,13.25
2022-09-24T07:18:02.990Z,13.30
2022-09-24T07:20:30.033Z,13.37
2022-09-24T07:22:57.283Z,13.40
2022-09-24T07:25:24.360Z,13.44
2022-09-24T07:27:51.277Z,13.45
2022-09-24T07:30:18.438Z,13.48
2022-09-24T07:32:45.388Z,13.49
2022-09-24T07:35:12.250Z,13.56
2022-09-24T07:37:39.121Z,13.57
2022-09-24T07:40:06.762Z,13.58
2022-09-24T07:42:34.308Z,13.60
2022-09-24T07:45:01.235Z,13.62
2022-09-24T07:47:28.416Z,13.67
2022-09-24T07:49:55.359Z,13.70
2022-09-24T07:52:22.305Z,13.77
2022-09-24T07:54:49.781Z,13.86
2022-09-24T07:57:16.760Z,13.91
2022-09-24T07:59:44.766Z,13.95
2022-09-24T08:02:17.244Z,14.01
2022-09-24T08:04:44.891Z,14.04
2022-09-24T08:07:13.502Z,14.06
2022-09-24T08:09:40.552Z,14.14
2022-09-24T08:12:09.491Z,14.17
2022-09-24T08:14:36.464Z,14.20
2022-09-24T08:17:03.392Z,14.27
2022-09-24T08:19:31.274Z,14.30
2022-09-24T08:21:58.599Z,14.31
2022-09-24T08:24:25.875Z,14.33
2022-09-24T08:26:52.776Z,14.34
2022-09-24T08:29:19.752Z,14.37
2022-09-24T08:31:46.833Z,14.39
2022-09-24T08:34:13.818Z,14.40
2022-09-24T08:36:43.002Z,14.42
2022-09-24T08:39:10.546Z,14.45
2022-09-24T08:41:50.297Z,14.47
2022-09-24T08:44:41.736Z,14.49
2022-09-24T08:47:36.929Z,14.49
2022-09-24T08:50:09.852Z,14.56
2022-09-24T08:52:42.286Z,14.55
2022-09-24T08:55:40.074Z,14.59
2022-09-24T08:58:44.338Z,14.62
2022-09-24T09:01:15.148Z,14.62
2022-09-24T09:03:56.078Z,14.61
2022-09-24T09:06:41.622Z,14.61
2022-09-24T09:09:16.487Z,14.58
2022-09-24T09:12:01.480Z,14.62
2022-09-24T09:14:42.362Z,14.59
2022-09-24T09:17:27.117Z,14.55
2022-09-24T09:19:58.424Z,14.58
2022-09-24T09:22:34.577Z,14.61
2022-09-24T09:25:25.420Z,14.62
2022-09-24T09:28:00.823Z,14.61
2022-09-24T09:30:39.511Z,14.62
2022-09-24T09:33:47.007Z,14.62
2022-09-24T09:36:45.162Z,14.60
2022-09-24T09:39:43.031Z,14.57
2022-09-24T09:42:36.111Z,14.56
2022-09-24T09:45:27.720Z,14.56
2022-09-24T09:47:57.569Z,14.54
2022-09-24T09:50:44.775Z,14.53
2022-09-24T09:53:26.920Z,14.58
2022-09-24T09:56:06.406Z,14.57
2022-09-24T09:58:36.649Z,14.61
2022-09-24T10:01:13.076Z,14.63
2022-09-24T10:03:50.261Z,14.63
2022-09-24T10:06:26.029Z,14.70
2022-09-24T10:08:53.489Z,14.72
2022-09-24T10:11:22.402Z,14.76
2022-09-24T10:14:06.041Z,14.77
2022-09-24T10:16:39.512Z,14.82
2022-09-24T10:19:23.711Z,14.87
2022-09-24T10:21:52.992Z,14.91
2022-09-24T10:24:25.327Z,14.97
2022-09-24T10:26:52.988Z,15.01
2022-09-24T10:29:49.888Z,15.07
2022-09-24T10:32:23.907Z,15.13
2022-09-24T10:34:59.169Z,15.18
2022-09-24T10:37:27.465Z,15.20
2022-09-24T10:40:15.654Z,15.22
2022-09-24T10:42:42.886Z,15.27
2022-09-24T10:45:15.418Z,15.32
2022-09-24T10:48:05.361Z,15.33
2022-09-24T10:51:13.229Z,15.37
2022-09-24T10:53:58.603Z,15.40
2022-09-24T10:56:46.577Z,15.41
2022-09-24T10:59:39.427Z,15.32
2022-09-24T11:02:28.937Z,15.30
2022-09-24T11:05:05.335Z,15.26
2022-09-24T11:08:03.872Z,15.18
2022-09-24T11:11:10.034Z,15.15
2022-09-24T11:14:09.671Z,15.13
2022-09-24T11:17:16.274Z,15.15
2022-09-24T11:20:31.141Z,15.16
2022-09-24T11:23:16.142Z,15.14
2022-09-24T11:25:54.995Z,15.12
2022-09-24T11:28:57.660Z,15.13
2022-09-24T11:31:56.285Z,15.12
2022-09-24T11:34:47.012Z,15.13
2022-09-24T11:37:39.317Z,15.16
2022-09-24T11:40:47.617Z,15.21
2022-09-24T11:43:43.912Z,15.22
2022-09-24T11:46:48.382Z,15.24
2022-09-24T11:50:03.370Z,15.25
2022-09-24T11:52:45.688Z,15.23
2022-09-24T11:55:19.801Z,15.29
2022-09-24T11:58:18.083Z,15.40
2022-09-24T12:00:53.902Z,15.47
2022-09-24T12:03:31.261Z,15.50
2022-09-24T12:06:07.498Z,15.50
2022-09-24T12:09:21.421Z,15.52
2022-09-24T12:11:55.091Z,15.49
2022-09-24T12:14:25.899Z,15.49
2022-09-24T12:17:06.766Z,15.45
2022-09-24T12:19:46.704Z,15.47
2022-09-24T12:22:14.603Z,15.51
2022-09-24T12:24:58.476Z,15.57
2022-09-24T12:27:39.005Z,15.61
2022-09-24T12:31:10.013Z,15.57
2022-09-24T12:33:57.612Z,15.60
2022-09-24T12:36:38.200Z,15.63
2022-09-24T12:39:11.449Z,15.63
2022-09-24T12:41:44.966Z,15.65
2022-09-24T12:44:11.926Z,15.66
2022-09-24T12:46:41.530Z,15.70
2022-09-24T12:49:26.537Z,15.74
2022-09-24T12:51:59.720Z,15.73
2022-09-24T12:54:31.322Z,15.77
2022-09-24T12:57:25.963Z,15.76
2022-09-24T13:00:37.566Z,15.77
2022-09-24T13:03:06.487Z,15.80
2022-09-24T13:05:44.507Z,15.83
2022-09-24T13:08:17.216Z,15.89
2022-09-24T13:11:00.720Z,15.93
2022-09-24T13:13:34.467Z,15.95
2022-09-24T13:16:21.270Z,16.04
2022-09-24T13:18:58.131Z,16.10
2022-09-24T13:21:28.596Z,16.13
2022-09-24T13:23:56.795Z,16.09
2022-09-24T13:26:34.207Z,16.11
2022-09-24T13:29:04.005Z,16.11
2022-09-24T13:31:52.304Z,16.12
2022-09-24T13:34:22.786Z,16.13
2022-09-24T13:37:02.471Z,16.17
2022-09-24T13:39:43.239Z,16.24
2022-09-24T13:42:34.577Z,16.28
2022-09-24T13:45:09.519Z,16.28
2022-09-24T13:47:52.000Z,16.33
2022-09-24T13:50:45.323Z,16.34
2022-09-24T13:53:22.219Z,16.31
2022-09-24T13:55:54.863Z,16.27
2022-09-24T13:58:39.468Z,16.23
2022-09-24T14:01:18.065Z,16.22
2022-09-24T14:03:58.794Z,16.23
2022-09-24T14:06:39.182Z,16.25
2022-09-24T14:09:26.717Z,16.30
2022-09-24T14:12:02.245Z,16.30
2022-09-24T14:14:34.279Z,16.34
2022-09-24T14:17:15.036Z,16.41
2022-09-24T14:19:42.629Z,16.46
2022-09-24T14:22:22.610Z,16.53
2022-09-24T14:24:59.012Z,16.56
2022-09-24T14:27:28.113Z,16.54
2022-09-24T14:30:06.933Z,16.58
2022-09-24T14:32:37.675Z,16.54
2022-09-24T14:35:18.353Z,16.43
2022-09-24T14:37:55.279Z,16.34
2022-09-24T14:40:23.893Z,16.30
2022-09-24T14:43:02.778Z,16.25
2022-09-24T14:45:37.897Z,16.23
2022-09-24T14:48:41.241Z,16.23
2022-09-24T14:51:26.804Z,16.20
2022-09-24T14:54:29.693Z,16.20
2022-09-24T14:56:56.836Z,16.20
2022-09-24T14:59:36.072Z,16.21
2022-09-24T15:02:21.733Z,16.19
2022-09-24T15:04:53.669Z,16.15
2022-09-24T15:07:30.076Z,16.12
2022-09-24T15:09:59.932Z,16.08
2022-09-24T15:12:31.416Z,16.06
2022-09-24T15:15:17.095Z,16.04
2022-09-24T15:17:47.326Z,15.99
2022-09-24T15:20:14.672Z,15.97
2022-09-24T15:22:41.627Z,15.97
2022-09-24T15:25:10.137Z,15.91
2022-09-24T15:27:39.486Z,15.86
2022-09-24T15:30:10.422Z,15.81
2022-09-24T15:32:38.075Z,15.79
2022-09-24T15:35:09.516Z,15.77
2022-09-24T15:37:40.216Z,15.77
2022-09-24T15:40:20.838Z,15.76
2022-09-24T15:42:47.955Z,15.73
2022-09-24T15:45:22.066Z,15.73
2022-09-24T15:47:51.192Z,15.71
2022-09-24T15:50:20.606Z,15.69
2022-09-24T15:52:53.025Z,15.67
2022-09-24T15:55:22.335Z,15.64
2022-09-24T15:57:49.357Z,15.63
2022-09-24T16:00:24.760Z,15.64
2022-09-24T16:02:54.646Z,15.62
2022-09-24T16:05:22.681Z,15.60
2022-09-24T16:07:49.906Z,15.60
2022-09-24T16:10:17.132Z,15.61
2022-09-24T16:12:44.079Z,15.61
2022-09-24T16:15:14.357Z,15.60
2022-09-24T16:17:41.391Z,15.59
2022-09-24T16:20:09.812Z,15.57
2022-09-24T16:22:36.866Z,15.57
2022-09-24T16:25:04.503Z,15.55
2022-09-24T16:27:31.407Z,15.54
2022-09-24T16:29:58.453Z,15.57
2022-09-24T16:32:25.394Z,15.57
2022-09-24T16:34:56.891Z,15.57
2022-09-24T16:37:24.656Z,15.54
2022-09-24T16:39:52.455Z,15.52
2022-09-24T16:42:19.591Z,15.52
2022-09-24T16:44:46.501Z,15.47
2022-09-24T16:47:16.297Z,15.46
2022-09-24T16:49:43.240Z,15.42
2022-09-24T16:52:10.706Z,15.39
2022-09-24T16:54:37.578Z,15.37
2022-09-24T16:57:06.037Z,15.33
2022-09-24T16:59:33.493Z,15.32
2022-09-24T17:02:00.735Z,15.31
2022-09-24T17:04:28.337Z,15.28
2022-09-24T17:06:56.845Z,15.24
2022-09-24T17:09:43.741Z,15.23
2022-09-24T17:12:11.090Z,15.21
2022-09-24T17:14:38.754Z,15.20
2022-09-24T17:17:06.742Z,15.18
2022-09-24T17:19:33.631Z,15.19
2022-09-24T17:22:00.606Z,15.21
2022-09-24T17:24:27.638Z,15.22
2022-09-24T17:26:55.077Z,15.17
2022-09-24T17:29:25.589Z,15.13
2022-09-24T17:31:55.923Z,15.10
2022-09-24T17:34:22.829Z,15.06
2022-09-24T17:36:49.711Z,15.04
2022-09-24T17:39:16.609Z,15.03
2022-09-24T17:41:43.586Z,15.03
2022-09-24T17:44:13.705Z,15.03
2022-09-24T17:46:40.967Z,15.01
2022-09-24T17:49:08.043Z,14.97
2022-09-24T17:51:36.803Z,14.90
2022-09-24T17:54:08.244Z,14.87
2022-09-24T17:56:38.990Z,14.90
2022-09-24T17:59:08.543Z,14.88
2022-09-24T18:01:38.191Z,14.83
2022-09-24T18:04:09.976Z,14.80
2022-09-24T18:06:39.986Z,14.81
2022-09-24T18:09:07.734Z,14.77
2022-09-24T18:11:56.951Z,14.74
2022-09-24T18:14:23.999Z,14.73
2022-09-24T18:16:51.304Z,14.73
2022-09-24T18:19:18.728Z,14.77
2022-09-24T18:21:48.288Z,14.74
2022-09-24T18:24:16.385Z,14.69
2022-09-24T18:26:44.086Z,14.64
2022-09-24T18:29:16.909Z,14.61
2022-09-24T18:31:44.824Z,14.61
2022-09-24T18:34:14.792Z,14.61
2022-09-24T18:36:43.972Z,14.60
2022-09-24T18:39:13.836Z,14.56
2022-09-24T18:41:42.539Z,14.56
2022-09-24T18:44:10.416Z,14.54
2022-09-24T18:46:37.496Z,14.55
2022-09-24T18:49:06.245Z,14.51
2022-09-24T18:51:37.150Z,14.49
2022-09-24T18:54:08.490Z,14.46
2022-09-24T18:56:36.368Z,14.47
2022-09-24T18:59:16.717Z,14.42
2022-09-24T19:01:45.663Z,14.39
2022-09-24T19:04:14.555Z,14.36
2022-09-24T19:06:44.699Z,14.33
2022-09-24T19:09:13.826Z,14.31
2022-09-24T19:11:41.802Z,14.25
2022-09-24T19:14:09.268Z,14.21
2022-09-24T19:16:36.268Z,14.18
2022-09-24T19:19:03.562Z,14.17
2022-09-24T19:21:30.853Z,14.15
2022-09-24T19:23:59.043Z,14.17
2022-09-24T19:26:32.414Z,14.18
2022-09-24T19:28:59.701Z,14.18
2022-09-24T19:31:35.869Z,14.19
2022-09-24T19:34:04.922Z,14.17
2022-09-24T19:36:42.871Z,14.14
2022-09-24T19:39:18.110Z,14.13
2022-09-24T19:41:46.088Z,14.08
2022-09-24T19:44:13.739Z,14.08
2022-09-24T19:46:41.373Z,14.09
2022-09-24T19:49:08.687Z,14.08
2022-09-24T19:51:36.468Z,14.04
2022-09-24T19:54:06.709Z,14.05
2022-09-24T19:56:34.704Z,14.10
2022-09-24T19:59:01.995Z,14.12
2022-09-24T20:01:32.484Z,14.06
2022-09-24T20:04:03.466Z,14.03
2022-09-24T20:06:33.829Z,13.99
2022-09-24T20:09:01.604Z,13.95
2022-09-24T20:11:32.150Z,13.91
2022-09-24T20:13:59.468Z,13.92
2022-09-24T20:16:28.279Z,13.91
2022-09-24T20:18:57.708Z,13.91
2022-09-24T20:21:32.515Z,13.90
2022-09-24T20:24:01.382Z,13.91
2022-09-24T20:26:47.080Z,13.94
2022-09-24T20:29:16.176Z,13.97
2022-09-24T20:31:51.802Z,13.94
2022-09-24T20:34:28.753Z,13.93
2022-09-24T20:36:58.460Z,13.95
2022-09-24T20:39:25.490Z,13.93
2022-09-24T20:41:52.979Z,13.91
2022-09-24T20:44:20.788Z,13.91
2022-09-24T20:46:48.150Z,13.91
2022-09-24T20:49:22.471Z,13.93
2022-09-24T20:51:56.541Z,13.93
2022-09-24T20:54:25.776Z,13.98
2022-09-24T20:56:52.715Z,14.00
2022-09-24T20:59:22.765Z,14.00
2022-09-24T21:01:49.900Z,14.00
2022-09-24T21:04:19.793Z,13.99
2022-09-24T21:06:47.559Z,14.00
2022-09-24T21:09:15.846Z,13.97
2022-09-24T21:11:43.831Z,13.96
2022-09-24T21:14:12.364Z,13.94
2022-09-24T21:16:39.430Z,13.94
2022-09-24T21:19:08.167Z,13.95
2022-09-24T21:21:38.237Z,13.96
2022-09-24T21:24:09.892Z,13.94
2022-09-24T21:26:39.396Z,13.95
2022-09-24T21:29:20.639Z,13.94
2022-09-24T21:31:48.792Z,13.90
2022-09-24T21:34:20.868Z,13.92
2022-09-24T21:36:48.592Z,13.91
2022-09-24T21:39:23.211Z,13.91
2022-09-24T21:41:51.315Z,13.90
2022-09-24T21:44:19.080Z,13.89
2022-09-24T21:46:47.306Z,13.88
2022-09-24T21:49:14.445Z,13.90
2022-09-24T21:51:43.287Z,13.86
2022-09-24T21:54:16.273Z,13.87
2022-09-24T21:56:43.944Z,13.89
2022-09-24T21:59:29.261Z,13.84
2022-09-24T22:01:56.272Z,13.86
2022-09-24T22:04:23.592Z,13.88
2022-09-24T22:06:51.190Z,13.92
2022-09-24T22:09:18.797Z,13.91
2022-09-24T22:11:46.286Z,13.89
2022-09-24T22:14:14.195Z,13.86
2022-09-24T22:16:41.214Z,13.87
2022-09-24T22:19:09.258Z,13.88
2022-09-24T22:21:36.710Z,13.85
2022-09-24T22:24:04.935Z,13.81
2022-09-24T22:26:32.249Z,13.80
2022-09-24T22:29:00.065Z,13.81
2022-09-24T22:31:27.800Z,13.80
2022-09-24T22:34:13.804Z,13.78
2022-09-24T22:36:41.064Z,13.77
2022-09-24T22:39:08.546Z,13.80
2022-09-24T22:41:39.915Z,13.79
2022-09-24T22:44:07.224Z,13.79
2022-09-24T22:46:36.014Z,13.75
2022-09-24T22:49:05.617Z,13.75
2022-09-24T22:51:33.604Z,13.75
2022-09-24T22:54:00.921Z,13.70
2022-09-24T22:56:30.139Z,13.71
2022-09-24T22:59:01.212Z,13.70
2022-09-24T23:01:43.362Z,13.68
2022-09-24T23:04:15.078Z,13.67
2022-09-24T23:06:43.502Z,13.65
2022-09-24T23:09:10.880Z,13.66
2022-09-24T23:11:38.196Z,13.66
2022-09-24T23:14:10.105Z,13.69
2022-09-24T23:16:38.098Z,13.65
2022-09-24T23:19:08.013Z,13.63
2022-09-24T23:21:35.689Z,13.58
2022-09-24T23:24:06.616Z,13.55
2022-09-24T23:26:34.092Z,13.54
2022-09-24T23:29:01.602Z,13.53
2022-09-24T23:31:32.033Z,13.52
2022-09-24T23:34:01.239Z,13.50
2022-09-24T23:36:31.032Z,13.50
2022-09-24T23:39:00.042Z,13.44
2022-09-24T23:41:28.921Z,13.44
2022-09-24T23:43:56.266Z,13.36
2022-09-24T23:46:23.394Z,13.42
2022-09-24T23:48:50.532Z,13.41
2022-09-24T23:51:17.423Z,13.39
2022-09-24T23:53:44.566Z,13.38
2022-09-24T23:56:12.498Z,13.38
2022-09-24T23:58:41.922Z,13.35
